馬公航空站 - ATIS

METAR RCQC 161400Z 03015KT 9999 FEW010 SCT040 20/15 Q1020 RMK A3014=

站台狀態:Online
最後更新:2018-12-16 22:30:01